Time;durP1;ratioP1;P1;durP2;ratioP2;P2;SDS_P1;SDS_P2;PMS_P1;PMS_P2;Temp;Humidity;BMP_temperature;BMP_pressure;BME280_temperature;BME280_humidity;BME280_pressure;Samples;Min_cycle;Max_cycle;Signal;HPM_P1;HPM_P2
2022/08/04 00:01:23;;;;;;;6.90;2.78;;;25.10;65.20;;;;;;5066438;28;20060;-57
2022/08/04 00:03:55;;;;;;;5.97;2.35;;;25.00;65.20;;;;;;5032880;28;20051;-57
2022/08/04 00:07:00;;;;;;;8.82;2.72;;;25.10;65.20;;;;;;5061593;28;20040;-57
2022/08/04 00:09:31;;;;;;;7.35;2.80;;;25.10;65.20;;;;;;4953847;28;20180;-57
2022/08/04 00:12:00;;;;;;;5.72;2.53;;;25.00;65.00;;;;;;4948300;28;20039;-57
2022/08/04 00:14:25;;;;;;;6.53;2.70;;;25.00;65.20;;;;;;4933676;28;20035;-57
2022/08/04 00:16:53;;;;;;;7.00;2.72;;;25.00;65.30;;;;;;4933740;28;20490;-57
2022/08/04 00:19:40;;;;;;;6.32;2.63;;;25.00;65.30;;;;;;4950604;28;20039;-57
2022/08/04 00:22:10;;;;;;;9.13;2.30;;;25.00;65.20;;;;;;4939723;28;20058;-57
2022/08/04 00:24:36;;;;;;;6.68;2.80;;;25.00;65.20;;;;;;4933070;28;20847;-58
2022/08/04 00:27:02;;;;;;;6.18;2.38;;;25.00;65.30;;;;;;4934197;28;20043;-57
2022/08/04 00:29:27;;;;;;;6.00;2.58;;;25.00;65.30;;;;;;4933633;28;20019;-57
2022/08/04 00:31:54;;;;;;;5.25;2.42;;;24.90;65.40;;;;;;4948444;28;20135;-57
2022/08/04 00:34:20;;;;;;;6.03;2.50;;;24.90;65.40;;;;;;4962583;28;20043;-57
2022/08/04 00:36:46;;;;;;;7.95;2.55;;;24.90;65.30;;;;;;4932817;28;20053;-57
2022/08/04 00:39:12;;;;;;;4.97;2.50;;;24.90;65.20;;;;;;4933435;29;20049;-57
2022/08/04 00:42:17;;;;;;;7.28;2.60;;;24.90;65.30;;;;;;4947890;28;20050;-57
2022/08/04 00:45:01;;;;;;;5.78;2.80;;;24.90;65.40;;;;;;4975771;28;20441;-57
2022/08/04 00:47:42;;;;;;;6.75;2.83;;;24.80;65.40;;;;;;5028067;28;20041;-57
2022/08/04 00:50:18;;;;;;;6.13;2.65;;;24.80;65.20;;;;;;5029819;28;20028;-57
2022/08/04 00:53:01;;;;;;;5.30;2.33;;;24.80;65.20;;;;;;5028807;28;20032;-58
2022/08/04 00:55:52;;;;;;;6.35;2.25;;;24.80;65.10;;;;;;5023705;28;20625;-57
2022/08/04 00:58:47;;;;;;;5.25;2.40;;;24.80;65.10;;;;;;5010894;28;20171;-57
2022/08/04 01:01:55;;;;;;;4.75;2.53;;;24.80;65.20;;;;;;5029353;28;20033;-57
2022/08/04 01:04:42;;;;;;;4.93;2.28;;;24.80;65.20;;;;;;5027042;28;20029;-57
2022/08/04 01:07:21;;;;;;;5.88;2.17;;;24.80;65.20;;;;;;5024926;28;20036;-57
2022/08/04 01:10:08;;;;;;;6.15;2.42;;;24.80;65.20;;;;;;5054834;28;20079;-57
2022/08/04 01:12:59;;;;;;;5.75;2.40;;;24.80;65.30;;;;;;5026838;28;20041;-57
2022/08/04 01:15:34;;;;;;;5.05;2.33;;;24.70;65.10;;;;;;5009488;28;20029;-57
2022/08/04 01:18:06;;;;;;;;;;;24.70;66.20;;;;;;5021376;28;20037;-57
2022/08/04 01:20:47;;;;;;;6.18;2.45;;;24.70;65.00;;;;;;5021868;28;20393;-57
2022/08/04 01:23:54;;;;;;;7.18;2.50;;;24.70;65.30;;;;;;5008846;28;20144;-57
2022/08/04 01:26:26;;;;;;;5.70;2.30;;;24.70;65.10;;;;;;5026762;28;20056;-57
2022/08/04 01:29:11;;;;;;;5.72;2.60;;;24.70;65.10;;;;;;5027167;28;20611;-57
2022/08/04 01:31:56;;;;;;;5.30;2.20;;;24.70;65.00;;;;;;5023951;28;20040;-57
2022/08/04 01:34:22;;;;;;;6.35;2.47;;;24.70;64.90;;;;;;5025360;28;20121;-57
2022/08/04 01:37:02;;;;;;;5.60;2.45;;;24.60;64.80;;;;;;5029674;28;20104;-57
2022/08/04 01:39:42;;;;;;;4.85;2.50;;;24.70;64.90;;;;;;5026865;28;20029;-57
2022/08/04 01:42:11;;;;;;;6.10;2.40;;;24.60;65.00;;;;;;5033437;28;20409;-57
2022/08/04 01:44:39;;;;;;;5.05;2.60;;;24.60;64.80;;;;;;5026970;28;20030;-58
2022/08/04 01:47:05;;;;;;;4.80;2.10;;;24.60;64.80;;;;;;5031517;28;20501;-57
2022/08/04 01:49:31;;;;;;;4.97;2.50;;;24.60;64.80;;;;;;5021907;28;22224;-57
2022/08/04 01:51:58;;;;;;;5.07;2.33;;;24.60;64.80;;;;;;5029777;28;20029;-57
2022/08/04 01:54:24;;;;;;;5.70;2.53;;;24.60;64.80;;;;;;4978254;28;1418097;-57
2022/08/04 01:56:50;;;;;;;5.03;2.40;;;24.60;64.80;;;;;;5029086;28;20040;-57
2022/08/04 01:59:17;;;;;;;5.47;2.33;;;24.60;64.80;;;;;;5026345;28;20137;-58
2022/08/04 02:01:43;;;;;;;6.18;2.45;;;24.60;64.90;;;;;;5031834;28;20094;-57
2022/08/04 02:04:13;;;;;;;5.35;2.30;;;24.60;64.90;;;;;;5026706;28;20368;-57
2022/08/04 02:06:55;;;;;;;5.07;2.05;;;24.60;64.80;;;;;;5021946;28;20029;-57
2022/08/04 02:09:33;;;;;;;6.43;2.20;;;24.60;64.80;;;;;;5031976;28;20014;-57
2022/08/04 02:12:26;;;;;;;4.57;2.28;;;24.50;64.70;;;;;;5027295;28;20076;-57
2022/08/04 02:15:02;;;;;;;5.13;2.50;;;24.50;64.70;;;;;;5045784;28;20036;-57
2022/08/04 02:17:58;;;;;;;7.13;2.30;;;24.50;64.80;;;;;;5025777;28;20076;-57
2022/08/04 02:20:28;;;;;;;5.63;2.13;;;24.50;64.70;;;;;;5019596;28;20037;-57
2022/08/04 02:23:08;;;;;;;4.55;2.30;;;24.50;64.70;;;;;;5031138;28;20441;-57
2022/08/04 02:25:40;;;;;;;3.92;2.10;;;24.50;65.80;;;;;;5027698;28;20100;-57
2022/08/04 02:28:20;;;;;;;5.70;2.40;;;24.50;64.70;;;;;;5037584;28;20026;-57
2022/08/04 02:31:09;;;;;;;4.70;2.50;;;24.50;64.70;;;;;;5027219;28;20029;-57
2022/08/04 02:33:43;;;;;;;5.15;2.30;;;24.50;64.70;;;;;;5028724;28;20038;-57
2022/08/04 02:36:16;;;;;;;4.50;2.15;;;24.50;64.70;;;;;;5027026;28;20035;-57
2022/08/04 02:38:55;;;;;;;4.97;2.20;;;24.40;64.60;;;;;;5027001;28;20403;-58
2022/08/04 02:41:22;;;;;;;4.97;2.10;;;24.40;64.60;;;;;;5027010;28;20033;-57
2022/08/04 02:43:48;;;;;;;4.78;2.33;;;24.40;64.50;;;;;;5025972;28;20390;-57
2022/08/04 02:46:17;;;;;;;5.00;2.22;;;24.40;64.60;;;;;;5027136;28;20040;-57
2022/08/04 02:48:43;;;;;;;5.22;2.20;;;24.40;64.50;;;;;;5026458;28;20021;-57
2022/08/04 02:51:09;;;;;;;4.30;2.05;;;24.40;64.60;;;;;;5026775;28;20636;-57
2022/08/04 02:53:34;;;;;;;5.00;2.20;;;24.40;64.50;;;;;;5049307;28;20041;-57
2022/08/04 02:56:00;;;;;;;4.88;2.22;;;24.40;64.50;;;;;;5051068;28;20387;-57
2022/08/04 02:58:27;;;;;;;4.45;2.05;;;24.40;64.50;;;;;;5027484;28;20025;-57
2022/08/04 03:00:53;;;;;;;4.47;2.10;;;24.40;64.50;;;;;;5034363;28;20494;-57
2022/08/04 03:03:39;;;;;;;4.78;2.15;;;24.40;64.40;;;;;;5026283;28;20107;-58
2022/08/04 03:06:11;;;;;;;4.82;2.20;;;24.40;64.50;;;;;;5034962;28;20526;-57
2022/08/04 03:08:58;;;;;;;3.72;1.85;;;24.30;64.40;;;;;;5026247;28;20021;-57
2022/08/04 03:11:45;;;;;;;3.47;1.88;;;24.30;64.40;;;;;;5025506;28;20029;-57
2022/08/04 03:14:32;;;;;;;4.35;2.03;;;24.30;64.40;;;;;;5025915;28;20033;-57
2022/08/04 03:17:09;;;;;;;5.38;2.30;;;24.30;65.50;;;;;;5027096;28;20445;-57
2022/08/04 03:19:35;;;;;;;4.70;2.22;;;24.30;64.40;;;;;;5025154;28;20025;-57
2022/08/04 03:22:38;;;;;;;4.07;2.13;;;24.30;64.40;;;;;;5026921;28;20037;-57
2022/08/04 03:25:13;;;;;;;4.68;1.90;;;24.30;64.40;;;;;;5026291;28;20045;-57
2022/08/04 03:28:16;;;;;;;4.65;2.05;;;24.30;64.40;;;;;;5025649;28;20033;-57
2022/08/04 03:31:03;;;;;;;3.65;1.70;;;24.30;64.40;;;;;;5025678;28;20026;-57
2022/08/04 03:33:35;;;;;;;4.18;2.15;;;24.30;64.40;;;;;;5022744;28;20474;-57
2022/08/04 03:36:39;;;;;;;4.80;2.10;;;24.30;64.60;;;;;;5026565;28;20041;-57
2022/08/04 03:39:32;;;;;;;3.88;2.10;;;24.30;64.60;;;;;;5023798;28;20046;-57
2022/08/04 03:42:19;;;;;;;4.75;2.20;;;24.30;64.50;;;;;;5027870;28;20410;-57
2022/08/04 03:45:09;;;;;;;3.97;2.03;;;24.30;64.60;;;;;;5025181;28;20489;-57
2022/08/04 03:47:47;;;;;;;3.50;1.73;;;24.20;64.40;;;;;;5024822;28;20710;-57
2022/08/04 03:50:28;;;;;;;3.50;1.92;;;24.20;64.40;;;;;;5023647;28;20037;-57
2022/08/04 03:53:20;;;;;;;5.68;2.28;;;24.20;64.40;;;;;;5026527;28;20379;-57
2022/08/04 03:56:10;;;;;;;4.60;2.00;;;24.20;64.40;;;;;;5025378;28;20526;-58
2022/08/04 03:58:48;;;;;;;2.97;1.80;;;24.20;64.50;;;;;;5026720;28;20021;-57
2022/08/04 04:01:23;;;;;;;3.85;1.90;;;24.20;64.50;;;;;;5049933;28;20042;-57
2022/08/04 04:04:26;;;;;;;4.18;2.00;;;24.20;64.50;;;;;;5026203;28;20034;-57
2022/08/04 04:07:26;;;;;;;4.35;1.83;;;24.20;64.50;;;;;;5021201;28;20033;-57
2022/08/04 04:10:11;;;;;;;5.97;1.92;;;24.20;64.50;;;;;;4978520;28;20093;-57
2022/08/04 04:12:42;;;;;;;3.15;1.80;;;24.10;64.50;;;;;;4985197;28;20022;-57
2022/08/04 04:15:35;;;;;;;3.95;1.92;;;24.10;64.50;;;;;;4984670;28;20039;-57
2022/08/04 04:18:22;;;;;;;4.53;2.10;;;24.10;64.50;;;;;;4984411;28;20034;-57
2022/08/04 04:21:06;;;;;;;3.60;1.98;;;24.10;64.50;;;;;;4981876;28;20041;-57
2022/08/04 04:23:41;;;;;;;4.95;2.17;;;24.10;64.50;;;;;;4983738;28;20030;-57
2022/08/04 04:26:51;;;;;;;4.43;2.15;;;24.10;64.50;;;;;;4981905;28;20038;-57
2022/08/04 04:29:28;;;;;;;4.97;2.15;;;24.10;64.60;;;;;;4982302;28;20034;-58
2022/08/04 04:32:13;;;;;;;3.92;1.90;;;24.10;64.50;;;;;;4999256;28;20019;-58
2022/08/04 04:35:10;;;;;;;3.20;1.75;;;24.10;64.50;;;;;;4982707;28;20034;-58
2022/08/04 04:37:56;;;;;;;3.78;1.90;;;24.10;64.50;;;;;;4982491;28;20609;-58
2022/08/04 04:40:30;;;;;;;4.88;2.00;;;24.10;64.60;;;;;;4984027;28;20502;-57
2022/08/04 04:43:19;;;;;;;3.42;1.80;;;24.10;64.60;;;;;;4964523;28;20070;-58
2022/08/04 04:46:10;;;;;;;3.47;1.83;;;24.10;64.60;;;;;;4962774;28;20050;-57
2022/08/04 04:48:43;;;;;;;4.90;1.77;;;24.00;64.60;;;;;;4990656;28;20040;-58
2022/08/04 04:51:23;;;;;;;5.97;2.10;;;24.00;64.50;;;;;;5001285;28;20037;-57
2022/08/04 04:54:08;;;;;;;4.57;2.00;;;24.00;64.50;;;;;;4972800;28;20821;-58
2022/08/04 04:56:43;;;;;;;3.42;1.90;;;24.00;64.50;;;;;;5000312;28;20034;-57
2022/08/04 04:59:14;;;;;;;3.53;1.58;;;24.00;64.50;;;;;;4988706;28;20450;-57
2022/08/04 05:01:51;;;;;;;4.28;1.85;;;24.00;64.50;;;;;;4985565;28;20124;-58
2022/08/04 05:04:32;;;;;;;2.67;1.60;;;24.00;64.60;;;;;;4994574;28;20050;-58
2022/08/04 05:07:41;;;;;;;3.03;1.90;;;24.00;64.50;;;;;;4999487;28;20030;-58
2022/08/04 05:10:16;;;;;;;3.35;1.65;;;24.00;64.50;;;;;;4965171;28;20518;-58
2022/08/04 05:12:55;;;;;;;3.75;1.83;;;24.00;64.50;;;;;;4948116;28;20031;-58
2022/08/04 05:15:21;;;;;;;3.22;1.70;;;24.00;64.60;;;;;;4949473;28;20034;-58
2022/08/04 05:17:51;;;;;;;3.92;1.88;;;24.00;64.60;;;;;;4950585;28;20025;-58
2022/08/04 05:20:26;;;;;;;3.95;1.80;;;24.00;64.60;;;;;;4966370;28;20053;-58
2022/08/04 05:22:53;;;;;;;;;;;24.00;64.50;;;;;;4962348;28;20416;-58
2022/08/04 05:25:21;;;;;;;3.45;1.70;;;24.00;64.50;;;;;;4968731;28;19906;-57
2022/08/04 05:28:20;;;;;;;4.35;2.00;;;24.00;64.50;;;;;;4953103;28;20085;-58
2022/08/04 05:30:49;;;;;;;3.67;1.80;;;24.00;64.50;;;;;;4965435;28;20045;-58
2022/08/04 05:33:20;;;;;;;4.03;1.70;;;24.00;64.50;;;;;;4982550;28;20463;-57
2022/08/04 05:35:48;;;;;;;3.72;1.65;;;24.00;64.50;;;;;;4986720;28;20018;-58
2022/08/04 05:38:17;;;;;;;4.55;2.00;;;23.90;64.50;;;;;;4970950;28;20537;-57
2022/08/04 05:40:42;;;;;;;3.67;1.80;;;23.90;64.50;;;;;;4987562;28;20084;-58
2022/08/04 05:43:08;;;;;;;3.13;1.63;;;23.90;64.50;;;;;;4986358;28;20070;-58
2022/08/04 05:45:34;;;;;;;8.00;1.63;;;23.90;64.50;;;;;;4972497;28;20027;-58
2022/08/04 05:48:04;;;;;;;4.32;1.50;;;23.90;64.50;;;;;;5026471;28;20033;-58
2022/08/04 05:50:30;;;;;;;6.20;1.80;;;23.90;64.50;;;;;;5026568;28;20025;-58
2022/08/04 05:52:56;;;;;;;4.82;1.80;;;23.90;64.50;;;;;;5027130;28;20481;-58
2022/08/04 05:55:22;;;;;;;3.00;1.63;;;23.90;64.40;;;;;;5033809;28;20252;-58
2022/08/04 05:57:47;;;;;;;3.47;1.70;;;23.90;64.40;;;;;;5026147;28;20055;-57
2022/08/04 06:00:13;;;;;;;5.05;1.70;;;23.90;64.40;;;;;;5028957;28;20021;-57
2022/08/04 06:02:39;;;;;;;3.08;1.60;;;23.90;64.40;;;;;;5027589;28;20099;-58
2022/08/04 06:05:06;;;;;;;3.88;1.50;;;23.90;64.40;;;;;;5034497;28;20036;-58
2022/08/04 06:07:32;;;;;;;4.63;1.75;;;23.90;64.50;;;;;;5024122;28;20034;-58
2022/08/04 06:09:57;;;;;;;3.85;1.58;;;23.80;64.40;;;;;;5025876;28;20052;-58
2022/08/04 06:12:31;;;;;;;5.53;1.75;;;23.90;64.40;;;;;;5009698;28;20068;-58
2022/08/04 06:14:57;;;;;;;2.57;1.70;;;23.80;64.30;;;;;;5034518;28;20112;-58
2022/08/04 06:17:49;;;;;;;3.55;1.52;;;23.80;64.30;;;;;;5051495;28;20152;-58
2022/08/04 06:20:16;;;;;;;4.80;1.70;;;23.80;64.30;;;;;;5025136;28;20073;-58
2022/08/04 06:22:42;;;;;;;4.10;1.77;;;23.80;64.30;;;;;;5026238;28;20091;-58
2022/08/04 06:25:08;;;;;;;3.38;1.70;;;23.80;65.30;;;;;;5022719;28;20040;-58
2022/08/04 06:27:33;;;;;;;5.63;1.67;;;23.80;64.20;;;;;;5027338;28;20038;-57
2022/08/04 06:29:59;;;;;;;5.30;1.70;;;23.80;64.30;;;;;;5053410;28;20029;-57
2022/08/04 06:32:26;;;;;;;4.28;1.70;;;23.80;64.30;;;;;;5027173;28;20436;-57
2022/08/04 06:35:00;;;;;;;4.40;1.80;;;23.80;64.30;;;;;;5026806;28;20172;-58
2022/08/04 06:37:26;;;;;;;4.22;1.50;;;23.80;64.20;;;;;;5025916;28;20475;-58
2022/08/04 06:39:52;;;;;;;3.55;1.75;;;23.80;64.20;;;;;;5023001;28;20041;-58
2022/08/04 06:42:19;;;;;;;4.70;1.60;;;23.80;64.20;;;;;;5027134;28;20041;-57
2022/08/04 06:44:51;;;;;;;5.53;2.05;;;23.80;64.20;;;;;;5026767;28;20026;-58
2022/08/04 06:47:18;;;;;;;2.45;1.70;;;23.80;64.20;;;;;;5038528;28;20032;-58
2022/08/04 06:49:45;;;;;;;4.00;1.98;;;23.80;64.20;;;;;;5027601;28;21537;-57
2022/08/04 06:52:16;;;;;;;3.90;1.67;;;23.80;64.20;;;;;;5053181;28;20037;-58
2022/08/04 06:54:45;;;;;;;4.32;1.80;;;23.80;64.20;;;;;;5025044;28;20509;-58
2022/08/04 06:57:12;;;;;;;3.83;1.50;;;23.80;64.10;;;;;;5024431;28;20386;-57
2022/08/04 06:59:39;;;;;;;3.38;1.60;;;23.80;64.10;;;;;;5028334;28;20033;-57
2022/08/04 07:02:05;;;;;;;4.43;1.70;;;23.80;64.10;;;;;;5023717;28;20052;-57
2022/08/04 07:04:31;;;;;;;3.40;1.50;;;23.80;64.10;;;;;;5054189;28;20021;-58
2022/08/04 07:06:56;;;;;;;3.78;1.75;;;23.80;64.00;;;;;;5025869;28;20489;-57
2022/08/04 07:09:22;;;;;;;3.33;1.75;;;23.80;64.10;;;;;;5025271;28;20033;-58
2022/08/04 07:11:47;;;;;;;3.22;1.70;;;23.80;64.10;;;;;;5025105;28;20029;-58
2022/08/04 07:14:13;;;;;;;2.38;1.52;;;23.80;64.00;;;;;;5025151;28;20017;-58
2022/08/04 07:16:39;;;;;;;3.78;1.50;;;23.70;64.00;;;;;;5026273;28;20486;-58
2022/08/04 07:19:05;;;;;;;3.30;1.60;;;23.70;64.00;;;;;;5054496;28;20025;-57
2022/08/04 07:21:31;;;;;;;4.60;1.70;;;23.70;63.90;;;;;;5027019;28;20038;-58
2022/08/04 07:23:56;;;;;;;3.00;1.65;;;23.80;65.10;;;;;;5023988;28;20026;-58
2022/08/04 07:26:27;;;;;;;3.30;1.50;;;23.80;64.00;;;;;;5024431;28;20025;-57
2022/08/04 07:28:52;;;;;;;3.58;1.42;;;23.70;63.80;;;;;;5023065;28;20543;-57
2022/08/04 07:31:18;;;;;;;5.63;1.88;;;23.70;63.90;;;;;;5025777;28;20029;-57
2022/08/04 07:33:44;;;;;;;3.33;1.55;;;23.70;63.80;;;;;;5050920;28;20075;-57
2022/08/04 07:36:10;;;;;;;3.63;1.50;;;23.70;63.80;;;;;;5026581;28;20393;-58
2022/08/04 07:38:35;;;;;;;4.05;1.63;;;23.70;63.80;;;;;;5049259;28;20086;-57
2022/08/04 07:41:02;;;;;;;3.17;1.45;;;23.80;63.80;;;;;;5024677;28;20418;-58
2022/08/04 07:43:29;;;;;;;3.03;1.50;;;23.70;63.80;;;;;;5008631;28;20037;-58
2022/08/04 07:45:54;;;;;;;3.28;1.35;;;23.80;63.80;;;;;;5034373;28;20014;-57
2022/08/04 07:48:22;;;;;;;4.60;1.85;;;23.70;63.80;;;;;;5024772;28;20521;-57
2022/08/04 07:50:47;;;;;;;3.50;1.67;;;23.70;63.80;;;;;;5026454;28;20071;-58
2022/08/04 07:53:13;;;;;;;3.50;1.70;;;23.80;63.90;;;;;;5006982;28;20026;-58
2022/08/04 07:55:39;;;;;;;7.07;2.00;;;23.70;63.80;;;;;;5025625;28;20022;-57
2022/08/04 07:58:04;;;;;;;2.42;1.52;;;23.70;63.80;;;;;;5024588;28;20033;-58
2022/08/04 08:00:30;;;;;;;2.95;1.30;;;23.70;63.80;;;;;;5050479;28;20030;-57
2022/08/04 08:02:55;;;;;;;3.33;1.60;;;23.80;63.90;;;;;;5037607;28;20040;-58
2022/08/04 08:05:21;;;;;;;3.75;1.55;;;23.70;63.70;;;;;;5019567;28;20054;-58
2022/08/04 08:07:48;;;;;;;3.92;1.65;;;23.80;64.10;;;;;;5003051;28;20080;-58
2022/08/04 08:10:13;;;;;;;2.33;1.30;;;23.80;63.80;;;;;;5024564;28;20442;-58
2022/08/04 08:12:40;;;;;;;4.22;1.63;;;23.90;63.60;;;;;;5026540;28;20060;-58
2022/08/04 08:15:07;;;;;;;5.28;1.42;;;23.90;63.80;;;;;;5030898;28;20030;-58
2022/08/04 08:17:33;;;;;;;3.58;1.60;;;23.90;63.80;;;;;;5017446;28;20022;-58
2022/08/04 08:19:59;;;;;;;3.90;1.65;;;23.90;63.70;;;;;;5010990;28;20064;-58
2022/08/04 08:22:25;;;;;;;4.15;1.80;;;23.90;63.60;;;;;;5026932;28;20560;-58
2022/08/04 08:24:50;;;;;;;4.57;1.70;;;23.90;63.50;;;;;;5030053;28;20025;-58
2022/08/04 08:27:16;;;;;;;4.32;1.65;;;24.00;63.40;;;;;;5054816;28;20520;-58
2022/08/04 08:29:42;;;;;;;4.53;1.50;;;24.00;62.80;;;;;;5030953;28;20032;-58
2022/08/04 08:32:09;;;;;;;5.95;1.50;;;24.00;62.60;;;;;;5033936;28;20061;-58
2022/08/04 08:34:35;;;;;;;7.43;1.70;;;24.00;62.40;;;;;;5043296;28;20049;-58
2022/08/04 08:37:26;;;;;;;4.32;1.50;;;24.00;62.30;;;;;;5029817;28;20075;-58
2022/08/04 08:40:06;;;;;;;4.90;1.63;;;24.00;62.20;;;;;;5024484;28;20049;-58
2022/08/04 08:42:40;;;;;;;6.63;1.45;;;24.10;61.70;;;;;;4991243;28;20041;-58
2022/08/04 08:45:30;;;;;;;5.53;1.60;;;24.10;62.10;;;;;;5025674;28;20037;-58
2022/08/04 08:48:20;;;;;;;4.88;1.50;;;24.10;61.70;;;;;;5020294;28;20045;-58
2022/08/04 08:51:10;;;;;;;8.35;1.90;;;24.10;61.60;;;;;;5009192;28;20041;-58
2022/08/04 08:53:57;;;;;;;3.88;1.42;;;24.20;61.60;;;;;;5020849;28;20056;-58
2022/08/04 08:56:45;;;;;;;5.47;1.63;;;24.30;61.40;;;;;;5024213;28;20461;-58
2022/08/04 08:59:35;;;;;;;5.18;1.60;;;24.30;61.30;;;;;;4983347;28;20096;-58
2022/08/04 09:02:38;;;;;;;6.95;1.73;;;24.30;61.20;;;;;;4981467;28;20042;-58
2022/08/04 09:05:19;;;;;;;6.00;1.60;;;24.30;61.20;;;;;;4983812;28;20051;-58
2022/08/04 09:08:00;;;;;;;7.95;1.83;;;24.40;61.20;;;;;;4985438;28;20034;-58
2022/08/04 09:10:32;;;;;;;7.88;1.65;;;24.40;60.50;;;;;;4967186;28;20070;-58
2022/08/04 09:13:26;;;;;;;9.15;1.58;;;24.30;58.00;;;;;;4987500;28;20034;-58
2022/08/04 09:16:11;;;;;;;7.78;1.73;;;24.30;59.10;;;;;;4984745;28;20482;-58
2022/08/04 09:18:40;;;;;;;7.10;1.50;;;24.30;59.30;;;;;;4969385;28;20038;-58
2022/08/04 09:21:16;;;;;;;11.65;1.77;;;24.30;58.80;;;;;;4983233;28;20058;-58
2022/08/04 09:23:59;;;;;;;7.38;1.63;;;24.30;57.30;;;;;;4981441;28;20034;-58
2022/08/04 09:26:59;;;;;;;11.15;1.65;;;24.30;57.40;;;;;;4970041;28;20034;-58
2022/08/04 09:29:46;;;;;;;8.70;1.70;;;24.30;58.10;;;;;;4989901;28;20411;-58
2022/08/04 09:32:21;;;;;;;8.48;1.58;;;24.30;57.90;;;;;;4966858;28;20554;-59
2022/08/04 09:35:12;;;;;;;8.60;1.75;;;24.30;57.60;;;;;;4985971;28;20054;-58
2022/08/04 09:37:56;;;;;;;10.35;1.60;;;24.30;56.40;;;;;;5038653;28;20033;-58
2022/08/04 09:40:40;;;;;;;7.93;1.65;;;24.10;56.00;;;;;;5027685;28;20559;-58
2022/08/04 09:43:14;;;;;;;8.60;1.33;;;24.20;56.00;;;;;;5027596;28;20034;-58
2022/08/04 09:46:18;;;;;;;5.75;1.35;;;24.20;55.90;;;;;;5026363;28;20559;-58
2022/08/04 09:48:51;;;;;;;9.10;1.60;;;24.20;56.70;;;;;;5025606;28;20072;-58
2022/08/04 09:51:23;;;;;;;6.55;1.35;;;24.20;55.70;;;;;;5025261;28;20025;-58
2022/08/04 09:54:27;;;;;;;8.45;1.60;;;24.20;55.80;;;;;;5026965;28;20146;-58
2022/08/04 09:57:14;;;;;;;6.60;1.10;;;24.30;56.30;;;;;;5028340;28;20068;-58
2022/08/04 09:59:42;;;;;;;7.72;1.48;;;24.20;56.10;;;;;;5026829;28;20038;-58
2022/08/04 10:02:09;;;;;;;7.38;1.60;;;24.20;56.50;;;;;;5051572;28;20044;-59
2022/08/04 10:04:35;;;;;;;6.85;1.42;;;24.20;55.70;;;;;;5027462;28;20438;-58
2022/08/04 10:07:22;;;;;;;7.72;1.50;;;24.20;55.60;;;;;;5025008;28;20546;-58
2022/08/04 10:10:19;;;;;;;6.07;1.73;;;24.20;55.70;;;;;;5027472;28;20076;-59
2022/08/04 10:13:17;;;;;;;7.15;1.60;;;24.30;55.90;;;;;;5051481;28;20037;-58
2022/08/04 10:15:49;;;;;;;7.68;1.60;;;24.30;55.90;;;;;;5025836;28;20096;-58
2022/08/04 10:18:47;;;;;;;5.82;1.15;;;24.30;55.90;;;;;;5039145;28;20026;-58
2022/08/04 10:21:50;;;;;;;7.15;1.45;;;24.30;56.40;;;;;;5036626;28;20129;-58
2022/08/04 10:24:24;;;;;;;6.32;1.27;;;24.30;56.30;;;;;;5025432;28;20188;-58
2022/08/04 10:26:52;;;;;;;6.00;1.42;;;24.30;56.30;;;;;;5026606;28;20036;-58
2022/08/04 10:29:45;;;;;;;6.32;1.50;;;24.30;56.20;;;;;;5033648;28;20065;-59
2022/08/04 10:32:17;;;;;;;10.48;1.60;;;24.30;55.90;;;;;;5025251;28;20088;-59
2022/08/04 10:35:06;;;;;;;5.82;1.60;;;24.30;56.00;;;;;;5025924;28;20017;-58
2022/08/04 10:37:41;;;;;;;6.53;1.50;;;24.40;56.30;;;;;;5025533;28;20029;-58
2022/08/04 10:40:35;;;;;;;7.13;1.40;;;24.40;56.30;;;;;;5026918;28;20108;-58
2022/08/04 10:43:19;;;;;;;8.88;1.50;;;24.40;56.30;;;;;;5028373;28;20104;-58
2022/08/04 10:45:57;;;;;;;7.07;1.55;;;24.40;56.40;;;;;;5022557;28;20029;-58
2022/08/04 10:48:37;;;;;;;8.45;1.58;;;24.40;56.40;;;;;;5026126;28;20509;-58
2022/08/04 10:51:10;;;;;;;8.25;1.52;;;24.40;56.20;;;;;;5024397;28;20068;-58
2022/08/04 10:53:37;;;;;;;7.18;1.58;;;24.40;56.40;;;;;;5026485;28;20045;-58
2022/08/04 10:56:46;;;;;;;6.80;1.67;;;24.40;56.10;;;;;;5026248;28;20030;-58
2022/08/04 10:59:17;;;;;;;6.88;1.20;;;24.40;56.40;;;;;;5023598;28;20060;-58
2022/08/04 11:01:45;;;;;;;6.82;1.40;;;24.40;56.30;;;;;;5049029;28;20037;-58
2022/08/04 11:04:24;;;;;;;7.43;1.70;;;24.40;56.30;;;;;;5024696;28;20044;-59
2022/08/04 11:06:51;;;;;;;6.18;1.42;;;24.40;56.40;;;;;;5051632;28;20061;-58
2022/08/04 11:09:17;;;;;;;7.80;1.60;;;24.40;56.50;;;;;;5027375;28;20049;-59
2022/08/04 11:11:46;;;;;;;9.40;1.70;;;24.50;56.40;;;;;;5050887;28;20054;-58
2022/08/04 11:14:16;;;;;;;7.15;1.67;;;24.50;56.40;;;;;;5024994;28;20024;-59
2022/08/04 11:16:50;;;;;;;6.30;1.38;;;24.50;56.10;;;;;;5050673;28;20030;-58
2022/08/04 11:19:43;;;;;;;8.05;1.35;;;24.50;55.90;;;;;;5024159;28;20029;-58
2022/08/04 11:22:22;;;;;;;6.32;1.30;;;24.50;55.80;;;;;;5046805;28;20512;-58
2022/08/04 11:25:05;;;;;;;5.97;1.25;;;24.50;55.90;;;;;;5026311;28;20600;-58
2022/08/04 11:27:44;;;;;;;6.38;1.48;;;24.50;55.90;;;;;;5025414;28;20493;-58
2022/08/04 11:30:11;;;;;;;7.45;1.50;;;24.50;55.90;;;;;;5007975;28;20022;-58
2022/08/04 11:32:51;;;;;;;5.20;1.33;;;24.50;55.90;;;;;;5022927;28;20029;-58
2022/08/04 11:35:39;;;;;;;7.53;1.70;;;24.60;55.90;;;;;;5025868;28;20104;-59
2022/08/04 11:38:40;;;;;;;4.53;1.20;;;24.50;55.80;;;;;;5023472;28;20181;-58
2022/08/04 11:41:11;;;;;;;4.53;1.27;;;24.60;55.80;;;;;;5004753;28;20176;-58
2022/08/04 11:43:47;;;;;;;7.70;1.70;;;24.60;55.80;;;;;;4987666;28;20030;-58
2022/08/04 11:46:17;;;;;;;6.07;1.30;;;24.60;55.70;;;;;;5012565;28;20236;-58
2022/08/04 11:49:02;;;;;;;7.25;1.50;;;24.60;55.70;;;;;;5002464;28;20136;-59
2022/08/04 11:51:28;;;;;;;;;;;24.70;55.80;;;;;;5002353;28;20037;-58
2022/08/04 11:53:54;;;;;;;5.55;1.17;;;24.60;55.70;;;;;;4990602;28;20550;-58
2022/08/04 11:56:20;;;;;;;6.10;1.58;;;24.60;55.40;;;;;;5007774;28;20550;-59
2022/08/04 11:58:46;;;;;;;6.00;1.30;;;24.70;55.40;;;;;;5007383;28;20030;-58
2022/08/04 12:01:27;;;;;;;7.78;1.55;;;24.70;55.80;;;;;;5006709;28;20494;-58
2022/08/04 12:04:25;;;;;;;5.30;1.10;;;24.70;55.20;;;;;;5006732;28;20062;-58
2022/08/04 12:06:56;;;;;;;5.75;1.40;;;24.70;55.20;;;;;;5002749;28;20035;-58
2022/08/04 12:09:27;;;;;;;7.30;1.50;;;24.70;55.30;;;;;;5005689;28;20053;-58
2022/08/04 12:12:12;;;;;;;5.43;1.33;;;24.70;55.20;;;;;;5007422;28;20529;-58
2022/08/04 12:15:11;;;;;;;5.72;1.58;;;24.80;55.10;;;;;;5007471;28;20034;-59
2022/08/04 12:18:06;;;;;;;6.45;1.30;;;24.80;55.10;;;;;;5016247;28;20041;-58
2022/08/04 12:20:36;;;;;;;7.00;1.48;;;24.80;54.90;;;;;;4988508;28;20038;-59
2022/08/04 12:23:02;;;;;;;8.00;1.40;;;24.80;55.00;;;;;;4986133;28;20225;-58
2022/08/04 12:25:33;;;;;;;5.03;1.30;;;24.80;55.00;;;;;;4988869;28;20113;-58
2022/08/04 12:28:05;;;;;;;5.88;1.30;;;24.80;54.70;;;;;;4994784;28;20400;-58
2022/08/04 12:30:35;;;;;;;6.22;1.40;;;24.80;54.70;;;;;;4968727;28;20041;-58
2022/08/04 12:33:19;;;;;;;8.15;1.25;;;24.80;54.80;;;;;;4971833;28;20080;-58
2022/08/04 12:35:52;;;;;;;8.32;1.30;;;24.80;54.80;;;;;;4989025;28;20458;-58
2022/08/04 12:38:18;;;;;;;5.88;1.20;;;24.80;54.60;;;;;;4988635;28;20039;-58
2022/08/04 12:40:50;;;;;;;6.60;1.13;;;24.90;54.80;;;;;;4972830;28;20027;-58
2022/08/04 12:43:18;;;;;;;4.22;1.38;;;24.90;54.70;;;;;;4972031;28;20065;-58
2022/08/04 12:45:49;;;;;;;3.88;1.17;;;24.90;54.80;;;;;;4971782;28;20097;-58
2022/08/04 12:48:16;;;;;;;6.25;1.30;;;24.90;54.60;;;;;;4987598;28;20095;-58
2022/08/04 12:50:46;;;;;;;6.65;1.52;;;24.80;54.40;;;;;;4971869;28;20835;-58
2022/08/04 12:53:12;;;;;;;5.53;1.27;;;24.80;54.70;;;;;;4995654;28;20030;-58
2022/08/04 12:55:38;;;;;;;7.80;1.40;;;24.80;54.80;;;;;;4994544;28;20035;-58
2022/08/04 12:58:12;;;;;;;9.73;1.70;;;24.80;55.00;;;;;;4996214;28;20095;-58
2022/08/04 13:00:37;;;;;;;6.93;1.50;;;24.80;54.90;;;;;;5027188;28;20028;-59
2022/08/04 13:03:06;;;;;;;5.85;1.23;;;24.80;54.70;;;;;;5031637;28;20029;-58
2022/08/04 13:05:31;;;;;;;7.65;1.48;;;24.90;54.70;;;;;;5029192;28;20025;-58
2022/08/04 13:07:57;;;;;;;4.57;1.20;;;24.90;54.70;;;;;;5028774;28;20030;-59
2022/08/04 13:10:23;;;;;;;8.35;1.70;;;24.90;54.80;;;;;;5036700;28;20033;-58
2022/08/04 13:12:59;;;;;;;6.65;1.27;;;24.90;54.70;;;;;;5027443;28;20025;-58
2022/08/04 13:15:26;;;;;;;7.97;1.40;;;24.80;54.70;;;;;;5029679;28;20036;-58
2022/08/04 13:18:07;;;;;;;6.18;1.35;;;24.80;54.60;;;;;;5029075;28;20034;-58
2022/08/04 13:20:34;;;;;;;9.00;1.40;;;24.90;54.80;;;;;;5028044;28;20041;-58
2022/08/04 13:23:11;;;;;;;4.95;1.23;;;24.90;54.60;;;;;;5052134;28;20042;-58
2022/08/04 13:25:40;;;;;;;6.85;1.25;;;24.90;54.60;;;;;;5036147;28;20068;-58
2022/08/04 13:28:22;;;;;;;7.30;1.42;;;24.90;55.10;;;;;;5026881;28;20520;-58
2022/08/04 13:30:52;;;;;;;7.60;1.50;;;24.90;55.10;;;;;;5025542;28;20029;-58
2022/08/04 13:33:18;;;;;;;7.53;1.30;;;24.90;54.90;;;;;;5053694;28;20037;-59